27. Neusiedlersee Radmarathon

Date: 29.04.2018

Results - Tour A

Pos No Name Year of Birth Time Cat Cat Pos Cat Diff ⚀ ⚀ Pos Club Pace Nation City
1 187 GERETSCHNIG Martin GERETSCHNIG M. 1988 2:59:36.9 M30 1 M 1 BK Racing 40.10 km/h Trofaiach +
2 1 HILLINGER Leo HILLINGER L. 1967 3:02:55.6 M50 1 M 2 39.40 km/h Jois +
3 186 TOMKA JĂĄnos TOMKA J. 1997 3:02:55.8 M20 1 M 3 SĂĄrrĂ©ti SE Optimit-Gemels PĂŒsp... 39.40 km/h Szombathely +
4 173 BRANDECKER Hannes BRANDECKER H. 1994 3:02:55.8 M20 2 M 4 Team Melasan Sportunion 39.40 km/h Reichraming +
5 880 STEINER Hanno STEINER H. 1993 3:02:55.9 M20 3 +0.1 M 5 39.40 km/h Spittal An Der Drau +
6 91 HERZOG Michael HERZOG M. 1981 3:02:56.1 M30 2 +3:19.1 M 6 Arbö Sparkasse Neunkirchen 39.40 km/h Leobersdorf +
7 257 HAJDINJAK Dusan HAJDINJAK D. 1973 3:02:56.2 M40 1 M 7 39.40 km/h Tropovci +
8 8 APPELTAUER Samuel APPELTAUER S. 1997 3:02:57.1 M20 4 +1.3 M 8 39.40 km/h Wien +
9 899 KIENZL Mario KIENZL M. 1990 3:02:57.2 M20 5 +1.4 M 9 BRL Lavanttal 39.40 km/h St.Stefan im Lavanttal +
10 976 TRAXL-PINTARELLI Andi TRAXL-PINTARELLI A. 1973 3:02:57.4 M40 2 +1.2 M 10 39.40 km/h Flirsch +
11 738 SCHICKMAIR Dominik SCHICKMAIR D. 1985 3:02:57.5 M30 3 +3:20.6 M 11 RC Stadt Haag 39.40 km/h 4432 +
12 194 ZWURTSCHEK Mario ZWURTSCHEK M. 1980 3:02:57.7 M30 4 +3:20.8 M 12 Arbö Sparkasse Neunkirchen 39.40 km/h Wien +
13 119 BAUERNBERGER Lukas BAUERNBERGER L. 1984 3:02:58.1 M30 5 +3:21.1 M 13 SV Helden von Heute 39.40 km/h Wien +
14 268 RIBIC Zoran RIBIC Z. 1980 3:02:58.9 M30 6 +3:22.0 M 14 39.30 km/h Hajdina +
15 224 VERASZTO Maximilian VERASZTO M. 1999 3:02:59.0 M U20 1 M 15 Tirol KTM Cycling Team 39.30 km/h Wien +
16 3 MATZNER Stefan MATZNER S. 1993 3:03:06.1 M20 6 +10.3 M 16 39.30 km/h Wien +
17 214 HERMANUTZ Felix HERMANUTZ F. 1997 3:03:46.1 M20 7 +50.3 M 17 39.20 km/h Linz +
18 979 GRÜNER Patric GRÜNER P. 1985 3:03:46.2 M30 7 +4:09.3 M 18 Team Blacksheep Portixol Group 39.20 km/h LĂ€ngenfeld +
19 183 REHRL Bernhard REHRL B. 1981 3:04:03.1 M30 8 +4:26.1 M 19 Bernhard Kohl Racing Team 39.10 km/h Wien +
20 269 HAGER Ingomar HAGER I. 1989 3:04:40.0 M20 8 +1:44.2 M 20 www.atterbiker.at 39.00 km/h Weyregg a. A. +
21 272 SOULES SĂ©bastien SOULES S. 1973 3:04:40.8 M40 3 +1:44.6 M 21 39.00 km/h Wien +
22 144 PRETZSCH Markus PRETZSCH M. 1987 3:05:24.6 M30 9 +5:47.7 M 22 Rasp Radl LADN 38.80 km/h Berchtesgaden +
23 36 TANTSCHER Dominik TANTSCHER D. 1991 3:05:28.8 M20 9 +2:33.0 M 23 38.80 km/h Deutschfeistritz +
24 239 NIEDEREDER Roland NIEDEREDER R. 1981 3:06:33.4 M30 10 +6:56.5 M 24 BMC LOUNGE LINZ 38.60 km/h Linz +
25 83 HINTEREGGER Norbert HINTEREGGER N. 1982 3:06:37.9 M30 11 +7:01.0 M 25 38.60 km/h Annaberg +
26 6 BRUS Alexander BRUS A. 1994 3:08:01.6 M20 10 +5:05.8 M 26 grafikeria centurion racing po... 38.30 km/h Kindberg +
27 189 FORSTHUBER Hannes FORSTHUBER H. 1988 3:08:02.9 M30 12 +8:25.9 M 27 Team ESIN-Cycling 38.30 km/h Salzburg +
28 755 BRUNNER Christian BRUNNER C. 1980 3:08:04.1 M30 13 +8:27.2 M 28 ASVÖ Radl Eck Cycling 38.30 km/h Jennersdorf +
29 177 STEINBACH Wolfgang STEINBACH W. 1970 3:08:04.2 M40 4 +5:08.0 M 29 RC Maroitalia Racing Team 38.30 km/h Pressbaum +
30 198 SPECKL Gerhard SPECKL G. 1983 3:08:04.3 M30 14 +8:27.4 M 30 HILL Racingteam 38.30 km/h Rohrau +
31 169 NEUWEG Markus NEUWEG M. 1986 3:08:04.8 M30 15 +8:27.8 M 31 neubike.at 38.30 km/h Enzenkirchen +
32 161 STEINWENDER Hannes STEINWENDER H. 1989 3:08:04.8 M20 11 +5:09.0 M 32 Team IE UE 38.30 km/h Graz +
33 315 BENCE DarĂĄzs BENCE D. 1992 3:08:04.8 M20 12 +5:09.0 M 33 38.30 km/h Szentendre +
34 205 ZAKIELARZ Lukasz ZAKIELARZ L. 1974 3:08:05.2 M40 5 +5:09.0 M 34 CICHY KACIK 38.30 km/h Krakow +
35 255 BERGER Gerhard BERGER G. 1972 3:08:05.5 M40 6 +5:09.3 M 35 38.30 km/h Eggersdorf +
36 878 MÜLLER Daniel MÜLLER D. 1978 3:08:05.5 M40 7 +5:09.3 M 36 38.30 km/h Wien +
37 174 SIRAKI Helmut SIRAKI H. 1964 3:08:06.0 M50 2 +5:10.3 M 37 38.30 km/h Ternitz +
38 7 KOZMA Dominik KOZMA D. 1996 3:08:06.9 M20 13 +5:11.1 M 38 Mountainbiker [am See] 38.30 km/h Baden +
39 88 STEINER Michael STEINER M. 1984 3:08:07.1 M30 16 +8:30.1 M 39 RC ARBÖ Kindberg 38.30 km/h St.barbara +
40 63 HEIMBUCHNER Harald HEIMBUCHNER H. 1986 3:08:07.7 M30 17 +8:30.8 M 40 www.atterbiker.at 38.30 km/h Schwanenstadt +
41 101 BENEDEK Istvan BENEDEK I. 1959 3:08:07.9 M50 3 +5:12.2 M 41 38.30 km/h BalatonfĂŒred +
42 202 LICSKAI Zsolt LICSKAI Z. 1976 3:08:08.0 M40 8 +5:11.8 M 42 RLC Mörbisch 38.30 km/h Harka +
43 236 HRINKOW Gerhard HRINKOW G. 1948 3:08:08.1 M70+ 1 M 43 CYCLE CAFÉ 38.30 km/h Reichraming +
44 95 STAMCAR Thomas STAMCAR T. 1982 3:08:08.2 M30 18 +8:31.2 M 44 38.30 km/h Kronstorf +
45 38 OBER Uschi OBER U. 1967 3:08:08.7 M50 4 +5:13.1 W 45 RSV Traunreut 38.30 km/h Altenmarkt +
46 80 SPANDL JĂŒrgen SPANDL J. 1968 3:08:09.0 M50 5 +5:13.3 M 46 RC ARBÖ Kindberg 38.30 km/h St.barbara +
47 126 KÜHNHAMMER Alexander KÜHNHAMMER A. 1974 3:08:09.4 M40 9 +5:13.2 M 47 ÖBB Infrastruktur 38.30 km/h Ried +
48 85 SCHWEIGLER Peter SCHWEIGLER P. 1973 3:08:09.5 M40 10 +5:13.3 M 48 Cinquantuno 38.30 km/h Graz +
49 46 REICHEL Christian REICHEL C. 1963 3:08:09.8 M50 6 +5:14.2 M 49 38.30 km/h Niklasdorf +
50 317 CSABA Vörös CSABA V. 1970 3:08:09.9 M40 11 +5:13.7 M 50 38.30 km/h Szentendre +
51 44 SCHWARZINGER Klaus SCHWARZINGER K. 1978 3:08:09.9 M40 12 +5:13.7 M 51 Wiener Sportclub 38.30 km/h Wien +
52 320 CSABA Petrik CSABA P. 1975 3:08:10.1 M40 13 +5:13.9 M 52 38.30 km/h Budapest +
53 193 KNÖDLSTORFER Florian KNÖDLSTORFER F. 1983 3:08:10.3 M30 19 +8:33.4 M 53 HILL Racingteam 38.30 km/h Weiden Am See +
54 66 KELPIN Volker KELPIN V. 1984 3:08:10.3 M30 20 +8:33.4 M 54 Team Pro Energetic 38.30 km/h Voitsberg +
55 208 WRIGHT James WRIGHT J. 1974 3:08:10.5 M40 14 +5:14.3 M 55 The Veronika Express (Crew) 38.30 km/h Salzburg +
56 538 BALSAI Tamas BALSAI T. 1967 3:08:10.7 M50 7 +5:15.0 M 56 38.30 km/h Budapest +
57 204 LUCKENBERGER Ronald LUCKENBERGER R. 1977 3:08:10.7 M40 15 +5:14.5 M 57 RLC Mörbisch 38.30 km/h Mörbisch +
58 155 HUBER Michael HUBER M. 1983 3:08:11.6 M30 21 +8:34.6 M 58 neubike.at 38.30 km/h Raab +
59 111 WINTER Markus WINTER M. 1975 3:08:11.6 M40 16 +5:15.4 M 59 BikeManiac 38.30 km/h Mistelbach +
60 62 TIPOTSCH Alexander TIPOTSCH A. 1976 3:08:11.8 M40 17 +5:15.6 M 60 38.30 km/h Hippach +
61 154 AUER Florian AUER F. 1989 3:08:13.9 M20 14 +5:18.1 M 61 neubike.at 38.30 km/h Kopfing +
62 244 MATTISCHEK Oliver MATTISCHEK O. 1993 3:08:14.3 M20 15 +5:18.5 M 62 Atterbiker 38.20 km/h Regau +
63 145 FASCHING Gerald FASCHING G. 1966 3:08:16.0 M50 8 +5:20.3 M 63 38.20 km/h Grafenbach +
64 996 FISCHERLEHNER Martin FISCHERLEHNER M. 1975 3:08:16.4 M40 18 +5:20.2 M 64 38.20 km/h Freistadt +
65 110 HÖLZL Michael HÖLZL M. 1988 3:08:16.4 M30 22 +8:39.5 M 65 Intersport MĂŒhl4tler Bike Team... 38.20 km/h Hirschbach Im MĂŒhlkreis +
66 221 FIDA-TAUMER Andreas FIDA-TAUMER A. 1973 3:08:27.0 M40 19 +5:30.8 M 66 Geizhals.at VICC Racing Divisi... 38.20 km/h Wien +
67 157 NEUWEG Manfred NEUWEG M. 1990 3:08:31.9 M20 16 +5:36.1 M 67 neubike.at 38.20 km/h St. Agatha +
68 153 LEHNER Stefan LEHNER S. 1992 3:09:43.9 M20 17 +6:48.1 M 68 neubike.at 37.90 km/h Fraham +
69 99 MÖRTL Manfred MÖRTL M. 1968 3:10:35.8 M50 9 +7:40.1 M 69 Cycle Team Tulln 37.80 km/h Tulln +
70 267 GRUSOVNIK Matjaz GRUSOVNIK M. 1986 3:11:34.9 M30 23 +11:58.0 M 70 Ć D RIKITEAM 37.60 km/h Pernica +
71 37 LECHNITZ Alfred LECHNITZ A. 1952 3:11:36.4 M60 1 M 71 RC Schnecke 37.60 km/h Wien +
72 35 SEIER Robert SEIER R. 1987 3:13:51.3 M30 24 +14:14.3 M 72 Union Raiffeisen Radteam Tirol 37.10 km/h Vomp +
73 9 MAURER - KARNER Richard MAURER - KARNER R. 1974 3:13:54.6 M40 20 +10:58.4 M 73 37.10 km/h Wien +
74 196 LIGETI Andras LIGETI A. 1978 3:13:54.7 M40 21 +10:58.5 M 74 Team Szerpentin 37.10 km/h Budapest +
75 811 TOMAN Vojtech TOMAN V. 1996 3:16:18.8 M20 18 +13:23.0 M 75 Hr Racing ČeskĂ© Bugějovice 36.70 km/h Znojmo +
76 163 FELGITSCH Markus FELGITSCH M. 1983 3:16:47.6 M30 25 +17:10.7 M 76 36.60 km/h Graz +
77 756 PESZAT LuboĆĄ PESZAT L. 1978 3:17:11.5 M40 22 +14:15.2 M 77 36.50 km/h ČeskĂ© Budějovice +
78 212 NISTELBERGER Andreas NISTELBERGER A. 1967 3:17:20.7 M50 10 +14:25.0 M 78 WSA Greenteam 36.50 km/h Anger +
79 240 PETSCHNIGG Valentin PETSCHNIGG V. 1998 3:17:53.4 M20 19 +14:57.6 M 79 RIG-Deutschlandsberg 36.40 km/h Deutschlandsberg +
80 132 EICHINGER Bernd EICHINGER B. 1980 3:17:57.0 M30 26 +18:20.0 M 80 36.40 km/h Krummnußbaum +
81 415 MANDLER Hermann MANDLER H. 1956 3:17:58.9 M60 2 +6:22.4 M 81 MandlerÂŽs Tri Team 36.40 km/h Trofaiach +
82 220 SCHÖNAUER Thomas SCHÖNAUER T. 2002 3:17:58.9 M U20 2 +14:59.9 M 82 RC Arbö Felbermayr Wels 36.40 km/h Wels +
83 142 BEHOUNEK Michal BEHOUNEK M. 1967 3:17:59.6 M50 11 +15:03.9 M 83 36.40 km/h HavlíčkƯv Brod 1 +
84 403 DÜNSER Johannes DÜNSER J. 1983 3:17:59.7 M30 27 +18:22.8 M 84 36.40 km/h Wien +
85 801 GRABNER Andreas GRABNER A. 1967 3:18:00.0 M50 12 +15:04.3 M 85 36.40 km/h Neuberg +
86 227 LIFKA Sebastian LIFKA S. 1994 3:18:00.9 M20 20 +15:05.1 M 86 RC ARBÖ SK VÖEST 36.40 km/h Lichtenberg +
87 211 STOURAC Nikola STOURAC N. 1985 3:18:00.9 M30 28 +18:24.0 M 87 EKOL Brno 36.40 km/h Brno +
88 764 SCHMIDT Alexander SCHMIDT A. 1988 3:18:01.4 M30 29 +18:24.5 M 88 LMB 36.40 km/h Mannersdorf An Der Rabnitz +
89 69 KOLAR Gert KOLAR G. 1962 3:18:01.5 M50 13 +15:05.8 M 89 Radteam Leoben 36.40 km/h Bruck an der Mur +
90 784 SCHREIBER Pascal SCHREIBER P. 1999 3:18:02.0 M U20 3 +15:03.0 M 90 36.40 km/h Wien +
91 863 HORVATH Richard HORVATH R. 1974 3:18:02.1 M40 23 +15:05.9 M 91 36.40 km/h Szombathely +
92 986 ORAZEM Alles ORAZEM A. 1973 3:18:02.2 M40 24 +15:06.0 M 92 36.40 km/h Stahovica +
93 270 WEINZINGER Michael WEINZINGER M. 1979 3:18:02.4 M30 30 +18:25.4 M 93 www.atterbiker.at 36.40 km/h Seewalchen Am Attersee +
94 826 KUBIK Pavol KUBIK P. 1980 3:18:02.4 M30 31 +18:25.4 M 94 R-Bike 36.40 km/h Edelstal +
95 536 SZABOLCS Gergely SZABOLCS G. 1970 3:18:02.7 M40 25 +15:06.5 M 95 36.40 km/h Budapest +
96 959 KUTÁCS Zsolt KUTÁCS Z. 1986 3:18:03.1 M30 32 +18:26.2 M 96 36.40 km/h GyƑr +
97 564 HELPAP Bernhard HELPAP B. 1992 3:18:03.3 M20 21 +15:07.5 M 97 36.40 km/h Wien +
98 41 KÖRNER Johann KÖRNER J. 1989 3:18:03.5 M20 22 +15:07.7 M 98 Radteam Leoben 36.40 km/h Knittelfeld +
99 219 SCHÜBL Markus SCHÜBL M. 1970 3:18:03.6 M40 26 +15:07.4 M 99 RC Kirchbiker 36.40 km/h Alkoven +
100 830 JOE Simon JOE S. 1985 3:18:04.6 M30 33 +18:27.6 M 100 36.30 km/h Wien +
101 405 FREHSNER Daniel FREHSNER D. 1993 3:18:05.4 M20 23 +15:09.6 M 101